createdAt,value
2018-08-12T00:00:24.811Z,15.90
2018-08-12T00:02:54.902Z,15.90
2018-08-12T00:05:23.985Z,15.90
2018-08-12T00:07:53.217Z,15.90
2018-08-12T00:10:23.268Z,15.90
2018-08-12T00:12:52.569Z,15.90
2018-08-12T00:15:22.814Z,15.90
2018-08-12T00:17:52.058Z,15.80
2018-08-12T00:20:22.601Z,15.80
2018-08-12T00:22:52.253Z,15.80
2018-08-12T00:25:28.455Z,15.80
2018-08-12T00:27:57.752Z,15.70
2018-08-12T00:30:27.037Z,15.70
2018-08-12T00:32:56.431Z,15.70
2018-08-12T00:35:25.708Z,15.80
2018-08-12T00:37:54.775Z,15.80
2018-08-12T00:40:23.986Z,15.70
2018-08-12T00:42:53.216Z,15.70
2018-08-12T00:45:22.395Z,15.60
2018-08-12T00:47:51.511Z,15.70
2018-08-12T00:50:20.668Z,15.70
2018-08-12T00:52:49.636Z,15.70
2018-08-12T00:55:18.961Z,15.70
2018-08-12T00:57:48.490Z,15.70
2018-08-12T01:00:20.783Z,15.60
2018-08-12T01:02:50.019Z,15.50
2018-08-12T01:05:19.629Z,15.50
2018-08-12T01:07:49.798Z,15.50
2018-08-12T01:10:19.632Z,15.40
2018-08-12T01:12:48.871Z,15.40
2018-08-12T01:15:21.306Z,15.40
2018-08-12T01:17:50.591Z,15.40
2018-08-12T01:20:25.194Z,15.30
2018-08-12T01:22:54.146Z,15.40
2018-08-12T01:25:23.422Z,15.30
2018-08-12T01:27:52.645Z,15.30
2018-08-12T01:30:22.663Z,15.30
2018-08-12T01:32:52.049Z,15.20
2018-08-12T01:35:21.416Z,15.20
2018-08-12T01:37:50.679Z,15.30
2018-08-12T01:40:20.522Z,15.20
2018-08-12T01:42:49.522Z,15.20
2018-08-12T01:45:19.676Z,15.30
2018-08-12T01:47:48.660Z,15.20
2018-08-12T01:50:18.975Z,15.20
2018-08-12T01:52:47.924Z,15.20
2018-08-12T01:55:17.370Z,15.20
2018-08-12T01:57:46.611Z,15.20
2018-08-12T02:00:18.765Z,15.10
2018-08-12T02:02:48.441Z,15.10
2018-08-12T02:05:18.089Z,15.10
2018-08-12T02:07:47.437Z,15.10
2018-08-12T02:10:16.674Z,15.10
2018-08-12T02:12:45.898Z,15.00
2018-08-12T02:15:15.104Z,15.00
2018-08-12T02:17:44.099Z,15.00
2018-08-12T02:20:13.587Z,15.00
2018-08-12T02:22:43.222Z,14.90
2018-08-12T02:25:12.664Z,15.00
2018-08-12T02:27:41.914Z,14.90
2018-08-12T02:30:13.245Z,14.90
2018-08-12T02:32:43.385Z,14.90
2018-08-12T02:35:12.650Z,14.90
2018-08-12T02:37:42.452Z,14.90
2018-08-12T02:40:11.741Z,14.90
2018-08-12T02:42:40.965Z,14.90
2018-08-12T02:45:12.156Z,14.90
2018-08-12T02:47:41.376Z,14.90
2018-08-12T02:50:10.605Z,14.90
2018-08-12T02:52:39.829Z,14.80
2018-08-12T02:55:10.490Z,14.80
2018-08-12T02:57:39.771Z,14.80
2018-08-12T03:00:10.968Z,14.80
2018-08-12T03:02:40.214Z,14.80
2018-08-12T03:05:09.437Z,14.80
2018-08-12T03:07:38.671Z,14.80
2018-08-12T03:10:08.601Z,14.80
2018-08-12T03:12:38.137Z,14.70
2018-08-12T03:15:09.036Z,14.70
2018-08-12T03:17:38.512Z,14.70
2018-08-12T03:20:10.433Z,14.70
2018-08-12T03:22:39.700Z,14.60
2018-08-12T03:25:10.126Z,14.60
2018-08-12T03:27:39.735Z,14.60
2018-08-12T03:30:10.073Z,14.60
2018-08-12T03:32:39.428Z,14.60
2018-08-12T03:35:08.651Z,14.60
2018-08-12T03:37:37.861Z,14.60
2018-08-12T03:40:10.352Z,14.60
2018-08-12T03:42:39.320Z,14.50
2018-08-12T03:45:09.067Z,14.40
2018-08-12T03:47:38.343Z,14.40
2018-08-12T03:50:08.949Z,14.40
2018-08-12T03:52:38.441Z,14.40
2018-08-12T03:55:08.180Z,14.40
2018-08-12T03:57:37.480Z,14.30
2018-08-12T04:00:14.598Z,14.30
2018-08-12T04:02:43.887Z,14.30
2018-08-12T04:05:13.175Z,14.40
2018-08-12T04:07:42.677Z,14.40
2018-08-12T04:10:11.994Z,14.40
2018-08-12T04:12:41.361Z,14.40
2018-08-12T04:15:11.812Z,14.50
2018-08-12T04:17:41.926Z,14.50
2018-08-12T04:20:11.928Z,14.50
2018-08-12T04:22:41.766Z,14.40
2018-08-12T04:25:10.756Z,14.40
2018-08-12T04:27:39.972Z,14.50
2018-08-12T04:30:10.328Z,14.50
2018-08-12T04:32:39.682Z,14.60
2018-08-12T04:35:09.315Z,14.60
2018-08-12T04:37:38.573Z,14.60
2018-08-12T04:40:08.279Z,14.70
2018-08-12T04:42:37.514Z,14.80
2018-08-12T04:45:07.059Z,14.70
2018-08-12T04:47:36.373Z,14.80
2018-08-12T04:50:06.707Z,14.80
2018-08-12T04:52:35.986Z,15.00
2018-08-12T04:55:05.451Z,15.10
2018-08-12T04:57:34.733Z,15.10
2018-08-12T05:00:04.083Z,15.20
2018-08-12T05:02:33.371Z,15.30
2018-08-12T05:05:02.599Z,15.40
2018-08-12T05:07:31.644Z,15.40
2018-08-12T05:10:00.866Z,15.40
2018-08-12T05:12:30.132Z,15.50
2018-08-12T05:14:59.394Z,15.60
2018-08-12T05:17:28.672Z,15.50
2018-08-12T05:19:57.694Z,15.80
2018-08-12T05:22:26.880Z,15.80
2018-08-12T05:24:55.816Z,15.90
2018-08-12T05:27:25.058Z,16.00
2018-08-12T05:29:54.243Z,16.10
2018-08-12T05:32:23.453Z,16.20
2018-08-12T05:34:52.670Z,16.40
2018-08-12T05:37:21.678Z,16.60
2018-08-12T05:39:50.969Z,16.60
2018-08-12T05:42:20.227Z,16.70
2018-08-12T05:44:49.494Z,16.90
2018-08-12T05:47:18.490Z,17.00
2018-08-12T05:49:47.704Z,17.10
2018-08-12T05:52:16.941Z,17.30
2018-08-12T05:54:46.161Z,17.60
2018-08-12T05:57:15.409Z,17.90
2018-08-12T05:59:44.628Z,18.10
2018-08-12T06:02:13.820Z,18.50
2018-08-12T06:04:43.066Z,18.70
2018-08-12T06:07:12.262Z,19.00
2018-08-12T06:09:41.245Z,19.30
2018-08-12T06:12:10.440Z,19.40
2018-08-12T06:14:39.696Z,19.70
2018-08-12T06:17:08.926Z,19.90
2018-08-12T06:19:38.156Z,20.10
2018-08-12T06:22:07.373Z,20.20
2018-08-12T06:24:36.633Z,20.30
2018-08-12T06:27:05.929Z,20.50
2018-08-12T06:29:35.161Z,20.70
2018-08-12T06:32:04.433Z,20.90
2018-08-12T06:34:33.653Z,21.00
2018-08-12T06:37:02.841Z,21.20
2018-08-12T06:39:32.032Z,21.40
2018-08-12T06:42:01.267Z,21.70
2018-08-12T06:44:30.530Z,21.90
2018-08-12T06:46:59.845Z,22.20
2018-08-12T06:49:29.734Z,22.30
2018-08-12T06:51:59.056Z,22.30
2018-08-12T06:54:28.289Z,22.50
2018-08-12T06:56:57.557Z,22.70
2018-08-12T06:59:26.724Z,22.70
2018-08-12T07:01:55.934Z,22.90
2018-08-12T07:04:25.197Z,22.80
2018-08-12T07:06:54.433Z,23.00
2018-08-12T07:09:23.457Z,23.10
2018-08-12T07:11:52.832Z,23.20
2018-08-12T07:14:22.186Z,23.20
2018-08-12T07:16:51.431Z,23.70
2018-08-12T07:19:20.676Z,23.90
2018-08-12T07:21:49.967Z,24.10
2018-08-12T07:24:19.025Z,24.50
2018-08-12T07:26:48.305Z,24.20
2018-08-12T07:29:17.302Z,24.00
2018-08-12T07:31:46.567Z,24.40
2018-08-12T07:34:16.037Z,24.00
2018-08-12T07:36:45.284Z,24.30
2018-08-12T07:39:14.726Z,24.60
2018-08-12T07:41:44.200Z,24.30
2018-08-12T07:44:13.798Z,24.60
2018-08-12T07:46:43.207Z,24.60
2018-08-12T07:49:12.168Z,24.40
2018-08-12T07:51:41.419Z,24.50
2018-08-12T07:54:10.721Z,24.50
2018-08-12T07:56:39.956Z,24.60
2018-08-12T07:59:09.270Z,25.00
2018-08-12T08:01:38.516Z,25.00
2018-08-12T08:04:07.470Z,25.20
2018-08-12T08:06:36.476Z,25.40
2018-08-12T08:09:09.749Z,25.60
2018-08-12T08:11:39.034Z,25.40
2018-08-12T08:14:08.413Z,25.60
2018-08-12T08:16:37.608Z,25.10
2018-08-12T08:19:06.954Z,25.40
2018-08-12T08:21:36.230Z,25.20
2018-08-12T08:24:05.569Z,25.30
2018-08-12T08:26:34.958Z,25.70
2018-08-12T08:29:04.148Z,25.70
2018-08-12T08:31:33.502Z,25.90
2018-08-12T08:34:02.790Z,25.70
2018-08-12T08:36:31.771Z,25.80
2018-08-12T08:39:00.751Z,25.50
2018-08-12T08:41:30.084Z,25.60
2018-08-12T08:43:59.377Z,25.70
2018-08-12T08:46:28.622Z,25.80
2018-08-12T08:48:57.628Z,25.90
2018-08-12T08:51:26.829Z,25.90
2018-08-12T08:53:56.005Z,25.80
2018-08-12T08:56:25.283Z,26.00
2018-08-12T08:58:54.601Z,26.00
2018-08-12T09:01:23.857Z,26.20
2018-08-12T09:03:53.095Z,26.20
2018-08-12T09:06:22.412Z,26.20
2018-08-12T09:08:51.979Z,26.20
2018-08-12T09:11:21.133Z,26.10
2018-08-12T09:13:50.157Z,26.30
2018-08-12T09:16:19.400Z,26.20
2018-08-12T09:18:48.595Z,26.20
2018-08-12T09:21:17.801Z,26.00
2018-08-12T09:23:47.015Z,26.00
2018-08-12T09:26:16.269Z,26.10
2018-08-12T09:28:45.525Z,26.10
2018-08-12T09:31:14.961Z,26.00
2018-08-12T09:33:43.977Z,25.90
2018-08-12T09:36:13.239Z,25.80
2018-08-12T09:38:42.255Z,25.90
2018-08-12T09:41:11.272Z,25.80
2018-08-12T09:43:40.244Z,25.90
2018-08-12T09:46:09.495Z,25.80
2018-08-12T09:48:38.751Z,25.80
2018-08-12T09:51:08.078Z,25.70
2018-08-12T09:53:37.033Z,25.80
2018-08-12T09:56:06.016Z,25.60
2018-08-12T09:58:35.343Z,25.20
2018-08-12T10:01:04.618Z,25.20
2018-08-12T10:03:33.833Z,24.90
2018-08-12T10:06:03.106Z,25.00
2018-08-12T10:08:32.317Z,25.10
2018-08-12T10:11:01.573Z,25.00
2018-08-12T10:13:30.890Z,25.00
2018-08-12T10:16:00.259Z,25.10
2018-08-12T10:18:29.585Z,25.20
2018-08-12T10:20:58.775Z,25.10
2018-08-12T10:23:27.749Z,25.00
2018-08-12T10:25:56.964Z,24.80
2018-08-12T10:28:26.257Z,24.90
2018-08-12T10:30:55.490Z,24.90
2018-08-12T10:33:24.521Z,25.00
2018-08-12T10:35:53.793Z,25.00
2018-08-12T10:38:22.981Z,25.00
2018-08-12T10:40:52.175Z,25.00
2018-08-12T10:43:21.377Z,24.90
2018-08-12T10:45:50.620Z,24.90
2018-08-12T10:48:19.857Z,25.00
2018-08-12T10:50:49.072Z,25.00
2018-08-12T10:53:18.376Z,24.90
2018-08-12T10:55:47.654Z,24.90
2018-08-12T10:58:16.916Z,25.00
2018-08-12T11:00:46.149Z,25.00
2018-08-12T11:03:15.394Z,24.90
2018-08-12T11:05:44.620Z,25.00
2018-08-12T11:08:13.865Z,25.00
2018-08-12T11:10:43.147Z,24.90
2018-08-12T11:13:12.440Z,25.10
2018-08-12T11:15:41.651Z,25.00
2018-08-12T11:18:10.917Z,25.00
2018-08-12T11:20:40.191Z,25.10
2018-08-12T11:23:09.494Z,25.20
2018-08-12T11:25:38.427Z,25.30
2018-08-12T11:28:07.730Z,25.20
2018-08-12T11:30:36.755Z,25.30
2018-08-12T11:33:06.102Z,25.20
2018-08-12T11:35:35.519Z,25.20
2018-08-12T11:38:04.750Z,25.20
2018-08-12T11:40:34.010Z,25.20
2018-08-12T11:43:03.256Z,25.20
2018-08-12T11:45:32.491Z,25.20
2018-08-12T11:48:01.747Z,25.20
2018-08-12T11:50:30.993Z,25.20
2018-08-12T11:53:00.286Z,25.20
2018-08-12T11:55:29.516Z,25.30
2018-08-12T11:57:58.780Z,25.30
2018-08-12T12:00:27.819Z,25.40
2018-08-12T12:02:57.123Z,25.40
2018-08-12T12:05:26.320Z,25.50
2018-08-12T12:07:55.560Z,25.60
2018-08-12T12:10:24.790Z,25.60
2018-08-12T12:12:54.480Z,25.50
2018-08-12T12:15:23.740Z,25.40
2018-08-12T12:17:52.984Z,25.40
2018-08-12T12:20:22.198Z,25.40
2018-08-12T12:22:51.248Z,25.50
2018-08-12T12:25:21.325Z,25.50
2018-08-12T12:27:50.518Z,25.50
2018-08-12T12:30:20.825Z,25.60
2018-08-12T12:32:51.262Z,25.60
2018-08-12T12:35:20.502Z,25.50
2018-08-12T12:37:49.954Z,25.50
2018-08-12T12:40:19.734Z,25.50
2018-08-12T12:42:49.005Z,25.50
2018-08-12T12:45:18.491Z,25.50
2018-08-12T12:47:47.897Z,25.50
2018-08-12T12:50:19.625Z,25.60
2018-08-12T12:52:56.012Z,25.60
2018-08-12T12:55:25.686Z,25.70
2018-08-12T12:57:55.044Z,25.70
2018-08-12T13:00:24.293Z,25.70
2018-08-12T13:02:53.838Z,25.70
2018-08-12T13:05:23.513Z,25.70
2018-08-12T13:07:53.524Z,25.70
2018-08-12T13:10:22.757Z,25.60
2018-08-12T13:12:52.046Z,25.70
2018-08-12T13:15:21.425Z,25.70
2018-08-12T13:17:50.629Z,25.80
2018-08-12T13:20:21.097Z,25.80
2018-08-12T13:22:50.707Z,25.90
2018-08-12T13:25:21.756Z,25.90
2018-08-12T13:27:51.027Z,25.80
2018-08-12T13:30:21.187Z,25.80
2018-08-12T13:32:50.872Z,25.90
2018-08-12T13:35:20.167Z,25.90
2018-08-12T13:37:49.442Z,25.90
2018-08-12T13:43:16.061Z,25.90
2018-08-12T13:45:45.313Z,26.00
2018-08-12T13:48:14.630Z,26.00
2018-08-12T13:50:43.840Z,26.00
2018-08-12T13:53:12.964Z,26.10
2018-08-12T13:55:41.993Z,26.10
2018-08-12T13:58:14.322Z,26.10
2018-08-12T14:00:43.681Z,26.10
2018-08-12T14:03:12.715Z,26.10
2018-08-12T14:05:41.908Z,26.00
2018-08-12T14:08:10.860Z,26.10
2018-08-12T14:13:38.169Z,26.00
2018-08-12T14:16:14.287Z,26.00
2018-08-12T14:18:43.516Z,26.00
2018-08-12T14:21:13.046Z,26.00
2018-08-12T14:23:42.282Z,26.00
2018-08-12T14:26:11.476Z,25.90
2018-08-12T14:28:40.648Z,26.00
2018-08-12T14:31:09.899Z,26.10
2018-08-12T14:33:39.159Z,26.20
2018-08-12T14:36:08.446Z,26.30
2018-08-12T14:38:37.681Z,26.40
2018-08-12T14:41:06.999Z,26.40
2018-08-12T14:43:36.377Z,26.40
2018-08-12T14:46:05.886Z,26.40
2018-08-12T14:48:35.155Z,26.30
2018-08-12T14:51:04.466Z,26.30
2018-08-12T14:53:33.798Z,26.40
2018-08-12T14:56:03.030Z,26.40
2018-08-12T14:58:32.100Z,26.50
2018-08-12T15:01:01.349Z,26.50
2018-08-12T15:03:30.601Z,26.50
2018-08-12T15:05:59.618Z,26.50
2018-08-12T15:08:28.887Z,26.50
2018-08-12T15:10:57.867Z,26.40
2018-08-12T15:13:27.254Z,26.30
2018-08-12T15:15:56.662Z,26.30
2018-08-12T15:18:25.930Z,26.30
2018-08-12T15:20:55.197Z,26.40
2018-08-12T15:23:24.434Z,26.20
2018-08-12T15:25:53.674Z,26.30
2018-08-12T15:28:22.931Z,26.40
2018-08-12T15:30:52.198Z,26.40
2018-08-12T15:33:21.180Z,26.40
2018-08-12T15:35:50.373Z,26.30
2018-08-12T15:38:19.540Z,26.40
2018-08-12T15:40:48.779Z,26.30
2018-08-12T15:43:18.347Z,26.30
2018-08-12T15:45:47.378Z,26.20
2018-08-12T15:48:27.930Z,26.20
2018-08-12T15:50:57.146Z,26.10
2018-08-12T15:53:26.658Z,26.00
2018-08-12T15:55:56.285Z,26.00
2018-08-12T15:58:38.141Z,26.10
2018-08-12T16:01:08.034Z,26.10
2018-08-12T16:03:37.462Z,26.10
2018-08-12T16:06:07.188Z,26.10
2018-08-12T16:08:36.477Z,26.10
2018-08-12T16:11:06.179Z,26.10
2018-08-12T16:13:35.891Z,26.10
2018-08-12T16:16:05.303Z,26.10
2018-08-12T16:18:35.161Z,26.10
2018-08-12T16:21:04.703Z,26.00
2018-08-12T16:23:34.191Z,26.00
2018-08-12T16:26:04.526Z,25.90
2018-08-12T16:28:33.832Z,25.90
2018-08-12T16:31:17.396Z,25.80
2018-08-12T16:33:46.671Z,25.90
2018-08-12T16:36:15.855Z,25.90
2018-08-12T16:38:45.428Z,25.80
2018-08-12T16:41:19.079Z,25.80
2018-08-12T16:43:48.291Z,25.70
2018-08-12T16:46:32.590Z,25.70
2018-08-12T16:49:02.086Z,25.70
2018-08-12T16:51:31.899Z,25.50
2018-08-12T16:54:01.166Z,25.50
2018-08-12T16:56:30.658Z,25.40
2018-08-12T16:58:59.919Z,25.50
2018-08-12T17:01:29.188Z,25.50
2018-08-12T17:03:58.929Z,25.40
2018-08-12T17:06:28.194Z,25.40
2018-08-12T17:08:57.457Z,25.40
2018-08-12T17:11:26.658Z,25.30
2018-08-12T17:13:56.231Z,25.20
2018-08-12T17:16:25.481Z,25.30
2018-08-12T17:18:54.653Z,25.20
2018-08-12T17:21:24.269Z,25.10
2018-08-12T17:23:55.340Z,25.10
2018-08-12T17:26:24.879Z,25.10
2018-08-12T17:28:54.460Z,25.00
2018-08-12T17:31:24.211Z,25.10
2018-08-12T17:33:53.807Z,25.00
2018-08-12T17:36:23.215Z,25.00
2018-08-12T17:38:52.720Z,24.90
2018-08-12T17:41:22.104Z,24.80
2018-08-12T17:43:51.572Z,24.80
2018-08-12T17:49:01.802Z,24.70
2018-08-12T17:51:31.528Z,24.60
2018-08-12T17:54:01.504Z,24.50
2018-08-12T17:56:31.384Z,24.50
2018-08-12T17:59:01.223Z,24.40
2018-08-12T18:01:30.827Z,24.30
2018-08-12T18:04:00.211Z,24.30
2018-08-12T18:06:29.781Z,24.20
2018-08-12T18:08:59.383Z,24.20
2018-08-12T18:11:29.067Z,24.10
2018-08-12T18:13:58.788Z,24.00
2018-08-12T18:16:28.116Z,24.00
2018-08-12T18:18:57.801Z,23.90
2018-08-12T18:21:27.074Z,23.90
2018-08-12T18:24:00.675Z,23.80
2018-08-12T18:26:31.564Z,23.70
2018-08-12T18:29:01.197Z,23.60
2018-08-12T18:31:30.799Z,23.60
2018-08-12T18:34:04.069Z,23.60
2018-08-12T18:36:33.455Z,23.50
2018-08-12T18:39:03.431Z,23.50
2018-08-12T18:41:33.051Z,23.40
2018-08-12T18:44:02.993Z,23.30
2018-08-12T18:46:32.631Z,23.20
2018-08-12T18:49:02.160Z,23.20
2018-08-12T18:51:31.486Z,23.10
2018-08-12T18:54:01.301Z,23.10
2018-08-12T18:56:31.352Z,23.00
2018-08-12T18:59:01.169Z,22.90
2018-08-12T19:01:31.255Z,22.80
2018-08-12T19:04:00.406Z,22.80
2018-08-12T19:06:29.733Z,22.70
2018-08-12T19:08:58.949Z,22.70
2018-08-12T19:11:28.527Z,22.50
2018-08-12T19:13:58.116Z,22.40
2018-08-12T19:16:27.747Z,22.30
2018-08-12T19:18:57.380Z,22.30
2018-08-12T19:21:26.535Z,22.30
2018-08-12T19:23:55.796Z,22.20
2018-08-12T19:26:25.260Z,22.20
2018-08-12T19:28:54.929Z,22.10
2018-08-12T19:31:24.474Z,22.00
2018-08-12T19:33:54.152Z,22.00
2018-08-12T19:36:23.776Z,21.90
2018-08-12T19:38:53.320Z,22.00
2018-08-12T19:41:23.055Z,21.90
2018-08-12T19:43:52.581Z,21.90
2018-08-12T19:51:41.885Z,21.80
2018-08-12T19:54:11.549Z,21.80
2018-08-12T19:56:40.728Z,21.80
2018-08-12T19:59:09.935Z,21.80
2018-08-12T20:01:39.442Z,21.70
2018-08-12T20:04:08.704Z,21.70
2018-08-12T20:06:37.936Z,21.70
2018-08-12T20:09:10.867Z,21.70
2018-08-12T20:11:40.219Z,21.70
2018-08-12T20:14:10.410Z,21.60
2018-08-12T20:16:40.445Z,21.60
2018-08-12T20:19:09.769Z,21.50
2018-08-12T20:21:39.251Z,21.50
2018-08-12T20:24:08.629Z,21.40
2018-08-12T20:26:37.839Z,21.40
2018-08-12T20:29:07.341Z,21.20
2018-08-12T20:31:36.944Z,21.20
2018-08-12T20:34:06.240Z,21.20
2018-08-12T20:36:35.448Z,21.20
2018-08-12T20:39:12.247Z,21.10
2018-08-12T20:41:42.627Z,21.00
2018-08-12T20:44:12.064Z,21.00
2018-08-12T20:46:41.365Z,20.90
2018-08-12T20:49:11.114Z,20.90
2018-08-12T20:51:40.538Z,20.90
2018-08-12T20:54:10.216Z,20.80
2018-08-12T20:56:39.862Z,20.80
2018-08-12T20:59:09.239Z,20.80
2018-08-12T21:01:39.655Z,20.80
2018-08-12T21:04:09.459Z,20.80
2018-08-12T21:06:39.224Z,20.80
2018-08-12T21:09:11.753Z,20.80
2018-08-12T21:11:42.253Z,20.70
2018-08-12T21:14:11.686Z,20.80
2018-08-12T21:16:41.067Z,20.80
2018-08-12T21:19:10.349Z,20.80
2018-08-12T21:21:39.626Z,20.80
2018-08-12T21:24:09.071Z,20.70
2018-08-12T21:26:38.322Z,20.70
2018-08-12T21:29:07.578Z,20.70
2018-08-12T21:31:37.112Z,20.60
2018-08-12T21:34:06.814Z,20.60
2018-08-12T21:36:36.443Z,20.60
2018-08-12T21:39:12.283Z,20.60
2018-08-12T21:41:41.839Z,20.70
2018-08-12T21:44:11.146Z,20.70
2018-08-12T21:46:40.420Z,20.70
2018-08-12T21:49:09.939Z,20.70
2018-08-12T21:51:39.421Z,20.80
2018-08-12T21:54:09.062Z,20.80
2018-08-12T21:56:38.374Z,20.80
2018-08-12T21:59:08.076Z,20.80
2018-08-12T22:01:37.708Z,20.80
2018-08-12T22:04:07.271Z,20.80
2018-08-12T22:06:36.929Z,20.80
2018-08-12T22:09:09.660Z,20.80
2018-08-12T22:11:38.984Z,20.90
2018-08-12T22:14:08.553Z,20.90
2018-08-12T22:16:38.186Z,20.90
2018-08-12T22:19:07.559Z,21.00
2018-08-12T22:21:37.162Z,21.00
2018-08-12T22:24:06.546Z,21.00
2018-08-12T22:26:35.856Z,20.90
2018-08-12T22:29:05.104Z,20.90
2018-08-12T22:31:34.473Z,20.80
2018-08-12T22:34:03.733Z,20.70
2018-08-12T22:36:33.300Z,20.60
2018-08-12T22:39:02.974Z,20.50
2018-08-12T22:41:33.240Z,20.40
2018-08-12T22:44:02.969Z,20.30
2018-08-12T22:46:32.572Z,20.30
2018-08-12T22:49:01.812Z,20.30
2018-08-12T22:51:31.557Z,20.20
2018-08-12T22:54:01.157Z,20.10
2018-08-12T22:56:30.604Z,20.10
2018-08-12T22:59:00.608Z,20.00
2018-08-12T23:01:30.323Z,19.90
2018-08-12T23:03:59.873Z,19.90
2018-08-12T23:06:29.651Z,19.80
2018-08-12T23:08:58.884Z,19.80
2018-08-12T23:11:28.430Z,19.70
2018-08-12T23:13:57.990Z,19.60
2018-08-12T23:16:38.354Z,19.60
2018-08-12T23:19:08.180Z,19.50
2018-08-12T23:21:37.801Z,19.50
2018-08-12T23:24:07.444Z,19.60
2018-08-12T23:26:36.720Z,19.60
2018-08-12T23:29:06.073Z,19.50
2018-08-12T23:31:35.347Z,19.50
2018-08-12T23:34:04.649Z,19.40
2018-08-12T23:36:33.871Z,19.40
2018-08-12T23:39:03.977Z,19.30
2018-08-12T23:41:33.689Z,19.20
2018-08-12T23:44:03.678Z,19.20
2018-08-12T23:46:33.522Z,19.10
2018-08-12T23:49:03.158Z,19.10
2018-08-12T23:51:32.836Z,19.10
2018-08-12T23:54:02.611Z,19.00
2018-08-12T23:56:32.312Z,18.90
2018-08-12T23:59:02.025Z,18.90
